Latest Weather Observations for Redcliffe

IDQ60801

Issued at 12:35 pm EST Tuesday 16 September 2014 (issued every 30 minutes, with the page automatically refreshed every 10 minutes)

About weather observations | Map of weather stations | Latest weather observations for QLD | Other Formats
Station Details ID: 040958 Name: REDCLIFFE Lat: -27.22 Lon: 153.09 Height: 12.6 m
Data from the previous 72 hours. | See also: Recent months at Redcliffe
Date/Time
EST
Temp
°C
App
Temp
°C
Dew
Point
Rel
Hum
%
Delta-T
°C
Wind Press
QNH
hPa
Press
MSL
hPa
Rain
since 9 am
mm
Dir
 
Spd
km/h
Gust
km/h
Spd
kts
Gust
kts
16/12:30pm 23.9 19.8 15.9 61 4.8 NNE 32 35 17 19 1013.5 1013.4 0.0
16/12:00pm 24.1 20.4 16.1 61 4.9 NE 30 35 16 19 1014.0 1013.9 0.0
16/11:30am 24.1 20.7 14.8 56 5.5 NNE 26 28 14 15 1014.8 1014.7 0.0
16/11:00am 24.4 21.4 13.6 51 6.3 NE 22 26 12 14 1015.4 1015.3 0.0
16/10:30am 23.6 21.2 12.6 50 6.3 NE 17 19 9 10 1016.1 1016.0 0.0
16/10:00am 22.7 20.9 12.0 50 6.0 NNW 13 19 7 10 1016.8 1016.7 0.0
16/09:30am 21.5 19.3 13.4 60 4.7 NNE 17 19 9 10 1017.2 1017.1 0.0
16/09:00am 20.1 17.8 14.0 68 3.5 NNE 19 22 10 12 1017.1 1017.0 7.4
16/08:30am 19.2 18.0 14.0 72 3.0 N 13 19 7 10 1017.5 1017.4 7.4
16/08:00am 17.9 16.5 13.4 75 2.5 NNW 13 17 7 9 1017.5 1017.4 7.4
16/07:30am 17.3 16.3 13.4 78 2.2 NNW 11 15 6 8 1017.5 1017.4 7.4
16/07:00am 17.1 16.6 13.8 81 1.9 NNW 9 13 5 7 1017.3 1017.2 7.4
16/06:30am 15.2 14.2 12.3 83 1.6 NNW 9 11 5 6 1017.0 1016.9 7.4
16/06:00am 14.5 13.8 12.0 85 1.3 NW 7 9 4 5 1016.9 1016.8 7.4
16/05:30am 14.6 13.5 12.1 85 1.4 NW 9 13 5 7 1016.6 1016.5 7.4
16/05:00am 14.5 13.0 12.0 85 1.3 WNW 11 15 6 8 1016.3 1016.2 7.4
16/04:30am 14.5 13.4 11.8 84 1.5 WNW 9 11 5 6 1016.1 1016.0 7.4
16/04:00am 14.8 13.7 12.1 84 1.5 WNW 9 11 5 6 1015.8 1015.7 7.4
16/03:30am 15.1 14.1 12.2 83 1.6 NNW 9 13 5 7 1015.6 1015.5 7.4
16/03:00am 16.2 14.9 12.4 78 2.1 N 11 17 6 9 1015.5 1015.4 7.4
16/02:30am 17.7 16.2 13.2 75 2.5 N 13 17 7 9 1015.5 1015.4 7.4
16/02:00am 18.0 15.9 13.5 75 2.5 N 17 20 9 11 1015.5 1015.4 7.4
16/01:30am 18.1 15.6 13.4 74 2.7 N 19 26 10 14 1015.3 1015.2 7.4
16/01:00am 18.2 16.0 13.3 73 2.8 N 17 24 9 13 1015.7 1015.6 7.4
16/12:30am 18.3 16.1 13.4 73 2.8 N 17 22 9 12 1015.8 1015.7 7.4
16/12:00am 18.7 16.1 13.3 71 3.1 N 19 22 10 12 1016.0 1015.9 7.4
 
Date/Time
EST
Temp
°C
App
Temp
°C
Dew
Point
Rel
Hum
%
Delta-T
°C
Wind Press
QNH
hPa
Press
MSL
hPa
Rain
since 9 am
mm
Dir
 
Spd
km/h
Gust
km/h
Spd
kts
Gust
kts
15/11:30pm 18.8 15.8 13.6 72 3.0 N 22 30 12 16 1016.1 1016.0 7.4
15/11:00pm 19.1 16.2 14.1 73 2.9 N 22 33 12 18 1016.1 1016.0 7.4
15/10:30pm 19.2 16.7 14.2 73 2.9 N 20 28 11 15 1016.4 1016.3 7.4
15/10:00pm 19.2 17.2 14.9 76 2.5 N 19 28 10 15 1016.6 1016.5 7.4
15/09:30pm 19.3 17.4 15.2 77 2.4 N 19 26 10 14 1016.8 1016.7 7.4
15/09:00pm 19.3 17.8 15.2 77 2.4 N 17 24 9 13 1016.7 1016.6 7.4
15/08:30pm 19.4 17.5 15.1 76 2.5 N 19 24 10 13 1016.6 1016.5 7.4
15/08:00pm 19.6 17.7 15.3 76 2.5 N 19 26 10 14 1016.7 1016.6 7.4
15/07:30pm 19.6 17.4 15.0 75 2.7 N 20 26 11 14 1016.3 1016.2 7.4
15/07:00pm 19.9 17.0 15.1 74 2.8 N 24 32 13 17 1016.1 1016.0 7.4
15/06:30pm 20.0 16.3 15.0 73 2.9 N 28 33 15 18 1015.7 1015.6 7.4
15/06:00pm 20.1 16.1 15.3 74 2.8 N 30 33 16 18 1015.6 1015.5 7.4
15/05:30pm 20.3 15.3 15.1 72 3.1 N 35 39 19 21 1015.2 1015.1 0.0
15/05:00pm 20.7 16.0 14.8 69 3.5 N 33 39 18 21 1014.9 1014.8 0.0
15/04:30pm 21.2 16.5 14.4 65 4.0 N 32 37 17 20 1014.6 1014.5 0.0
15/04:00pm 22.0 18.1 13.4 58 5.0 NE 26 32 14 17 1014.6 1014.5 0.0
15/03:30pm 22.1 16.7 12.9 56 5.3 NNE 33 37 18 20 1014.6 1014.5 0.0
15/03:00pm 22.2 17.0 12.7 55 5.4 NE 32 37 17 20 1014.7 1014.6 0.0
15/02:30pm 22.2 17.3 13.8 59 4.9 NE 32 33 17 18 1015.0 1014.9 0.0
15/02:00pm 22.1 17.3 14.0 60 4.7 NE 32 35 17 19 1015.2 1015.1 0.0
15/01:30pm 23.0 18.3 13.2 54 5.7 NE 30 32 16 17 1015.7 1015.6 0.0
15/01:00pm 22.5 18.3 13.6 57 5.2 NE 28 30 15 16 1016.1 1016.0 0.0
15/12:30pm 22.2 18.9 14.1 60 4.7 NE 24 28 13 15 1016.6 1016.5 0.0
15/12:00pm 21.5 19.0 13.4 60 4.7 ENE 19 22 10 12 1017.1 1017.0 0.0
15/11:30am 21.8 20.1 12.4 55 5.3 NE 13 15 7 8 1017.8 1017.7 0.0
15/11:00am 22.1 20.2 11.8 52 5.8 NE 13 17 7 9 1018.2 1018.1 0.0
15/10:30am 21.6 19.6 11.6 53 5.6 NE 13 17 7 9 1018.7 1018.6 0.0
15/10:00am 20.9 19.1 11.0 53 5.4 ENE 11 13 6 7 1019.3 1019.2 0.0
15/09:30am 20.5 19.0 10.6 53 5.4 NNE 9 13 5 7 1019.6 1019.5 0.0
15/09:00am 19.8 18.8 11.0 57 4.8 NE 7 9 4 5 1019.8 1019.7 0.0
15/08:30am 19.9 19.3 12.2 61 4.3 ESE 7 9 4 5 1019.9 1019.8 0.0
15/08:00am 17.9 18.4 11.7 67 3.4 CALM 0 6 0 3 1019.8 1019.7 0.0
15/07:30am 16.4 16.8 11.1 71 2.8 CALM 0 0 0 0 1019.8 1019.7 0.0
15/07:00am 14.7 13.4 11.1 79 1.9 SW 9 11 5 6 1019.6 1019.5 0.0
15/06:30am 13.1 12.0 10.8 86 1.2 SW 7 11 4 6 1019.2 1019.1 0.0
15/06:00am 12.4 12.2 10.5 88 1.0 W 2 7 1 4 1018.9 1018.8 0.0
15/05:30am 12.7 12.6 10.8 88 1.0 WNW 2 7 1 4 1018.5 1018.4 0.0
15/05:00am 12.9 11.5 10.8 87 1.1 W 9 11 5 6 1018.5 1018.4 0.0
15/04:30am 12.9 10.7 10.8 87 1.1 W 13 15 7 8 1018.5 1018.4 0.0
15/04:00am 13.7 12.4 11.4 86 1.2 WNW 9 13 5 7 1018.1 1018.0 0.0
15/03:30am 13.8 12.5 11.3 85 1.3 W 9 11 5 6 1018.3 1018.2 0.0
15/03:00am 14.2 12.6 11.4 83 1.5 W 11 13 6 7 1018.2 1018.1 0.0
15/02:30am 14.5 12.9 11.5 82 1.6 W 11 13 6 7 1018.4 1018.3 0.0
15/02:00am 14.5 12.9 11.5 82 1.6 W 11 13 6 7 1018.8 1018.7 0.0
15/01:30am 14.6 13.0 11.4 81 1.7 W 11 13 6 7 1019.1 1019.0 0.0
15/01:00am 14.9 13.3 11.5 80 1.8 WNW 11 13 6 7 1019.3 1019.2 0.0
15/12:30am 15.2 13.6 11.6 79 1.9 WNW 11 13 6 7 1019.6 1019.5 0.0
15/12:00am 15.5 14.0 11.9 79 1.9 WNW 11 13 6 7 1019.8 1019.7 0.0
 
Date/Time
EST
Temp
°C
App
Temp
°C
Dew
Point
Rel
Hum
%
Delta-T
°C
Wind Press
QNH
hPa
Press
MSL
hPa
Rain
since 9 am
mm
Dir
 
Spd
km/h
Gust
km/h
Spd
kts
Gust
kts
14/11:30pm 15.7 14.2 11.9 78 2.1 WNW 11 13 6 7 1019.9 1019.8 0.0
14/11:00pm 15.9 14.5 12.1 78 2.1 W 11 13 6 7 1020.0 1019.9 0.0
14/10:30pm 15.7 14.6 11.9 78 2.1 WNW 9 11 5 6 1020.0 1019.9 0.0
14/10:00pm 16.3 14.9 12.3 77 2.2 NW 11 13 6 7 1020.2 1020.2 0.0
14/09:30pm 17.4 16.2 12.9 75 2.5 NNW 11 13 6 7 1020.2 1020.2 0.0
14/09:00pm 18.6 17.1 13.2 71 3.0 N 13 17 7 9 1020.2 1020.2 0.0
14/08:30pm 19.0 16.7 13.0 68 3.4 N 17 20 9 11 1020.3 1020.3 0.0
14/08:00pm 19.0 16.7 13.0 68 3.4 NNE 17 20 9 11 1020.3 1020.3 0.0
14/07:30pm 19.1 16.4 12.8 67 3.5 NNE 19 20 10 11 1020.2 1020.2 0.0
14/07:00pm 19.2 16.2 12.7 66 3.6 NNE 20 24 11 13 1020.1 1020.1 0.0
14/06:30pm 19.3 16.3 12.6 65 3.8 NNE 20 24 11 13 1019.8 1019.7 0.0
14/06:00pm 19.5 16.0 12.3 63 4.0 NNE 22 26 12 14 1019.7 1019.6 0.0
14/05:30pm 19.8 16.0 12.3 62 4.2 NNE 24 28 13 15 1019.6 1019.5 0.0
14/05:00pm 20.1 16.1 11.8 59 4.6 NNE 24 26 13 14 1019.3 1019.2 0.0
14/04:30pm 20.4 16.5 12.1 59 4.6 NNE 24 28 13 15 1019.1 1019.0 0.0
14/04:00pm 20.9 17.4 12.3 58 4.8 NNE 22 26 12 14 1019.0 1018.9 0.0
14/03:30pm 20.7 17.5 11.9 57 4.9 NNE 20 24 11 13 1019.0 1018.9 0.0
14/03:00pm 21.3 18.6 13.0 59 4.7 NE 19 20 10 11 1019.2 1019.1 0.0
14/02:30pm 21.7 19.3 12.5 56 5.2 NE 17 19 9 10 1019.3 1019.2 0.0
14/02:00pm 21.1 18.6 11.2 53 5.4 ENE 15 17 8 9 1019.6 1019.5 0.0
14/01:30pm 21.8 19.8 12.6 56 5.2 ENE 15 17 8 9 1019.9 1019.8 0.0
14/01:00pm 22.0 20.1 11.7 52 5.7 ENE 13 15 7 8 1020.4 1020.4 0.0
14/12:30pm 21.9 20.1 12.2 54 5.5 E 13 15 7 8 1020.8 1020.8 0.0
14/12:00pm 22.0 20.5 12.0 53 5.6 ENE 11 13 6 7 1021.4 1021.4 0.0
14/11:30am 22.8 22.5 13.3 55 5.5 E 7 9 4 5 1022.0 1022.0 0.0
14/11:00am 22.0 21.3 12.0 53 5.6 ESE 7 7 4 4 1022.5 1022.5 0.0
14/10:30am 22.3 21.5 12.8 55 5.4 SSE 9 11 5 6 1022.8 1022.8 0.0
14/10:00am 21.1 19.5 11.4 54 5.4 SSE 11 13 6 7 1022.9 1022.9 0.0
14/09:30am 21.0 19.3 12.4 58 4.8 S 13 13 7 7 1023.2 1023.2 0.0
14/09:00am 20.6 18.9 12.6 60 4.5 S 13 17 7 9 1023.2 1023.2 0.0
14/08:30am 19.7 17.7 12.7 64 3.9 S 15 19 8 10 1023.2 1023.2 0.0
14/08:00am 18.8 17.3 13.0 69 3.3 S 13 17 7 9 1023.0 1023.0 0.0
14/07:30am 16.9 15.2 12.4 75 2.5 SSW 13 17 7 9 1022.9 1022.9 0.0
14/07:00am 14.6 12.5 11.2 80 1.8 SSW 13 19 7 10 1022.9 1022.9 0.0
14/06:30am 14.4 11.6 11.2 81 1.7 SW 17 20 9 11 1022.7 1022.7 0.0
14/06:00am 13.9 11.7 10.9 82 1.6 SW 13 17 7 9 1022.4 1022.4 0.0
14/05:30am 13.8 10.8 10.8 82 1.6 SW 17 19 9 10 1022.1 1022.1 0.0
14/05:00am 13.7 11.5 10.9 83 1.5 SW 13 17 7 9 1021.9 1021.9 0.0
14/04:30am 14.0 11.9 11.2 83 1.5 SSW 13 17 7 9 1021.6 1021.6 0.0
14/04:00am 14.3 11.9 11.5 83 1.5 SSW 15 19 8 10 1021.4 1021.4 0.0
14/03:30am 14.4 12.4 11.4 82 1.6 SSW 13 19 7 10 1021.6 1021.6 0.0
14/03:00am 14.7 12.8 11.7 82 1.6 SSW 13 17 7 9 1022.0 1022.0 0.0
14/02:30am 14.8 13.3 11.9 83 1.6 SW 11 15 6 8 1022.2 1022.2 0.0
14/02:00am 15.0 13.9 11.8 81 1.7 SW 9 15 5 8 1022.5 1022.5 0.0
14/01:30am 15.2 13.7 12.0 81 1.7 SW 11 15 6 8 1022.8 1022.8 0.0
14/01:00am 15.5 13.8 12.4 82 1.7 WSW 13 15 7 8 1023.1 1023.1 0.0
14/12:30am 15.2 14.1 12.1 82 1.7 SW 9 11 5 6 1023.1 1023.1 0.0
14/12:00am 16.1 16.9 12.5 79 2.0 CALM 0 0 0 0 1023.2 1023.2 0.0
 
Date/Time
EST
Temp
°C
App
Temp
°C
Dew
Point
Rel
Hum
%
Delta-T
°C
Wind Press
QNH
hPa
Press
MSL
hPa
Rain
since 9 am
mm
Dir
 
Spd
km/h
Gust
km/h
Spd
kts
Gust
kts
13/11:30pm 16.9 16.3 12.4 75 2.5 SSW 7 9 4 5 1023.3 1023.3 0.0
13/11:00pm 18.0 15.8 12.0 68 3.3 S 15 19 8 10 1023.8 1023.8 0.0
13/10:30pm 18.7 16.4 12.9 69 3.3 SSE 17 19 9 10 1024.2 1024.2 0.0
13/10:00pm 18.7 16.0 13.6 72 2.9 ESE 20 24 11 13 1024.3 1024.3 0.0
13/09:30pm 18.7 14.5 13.6 72 2.9 ESE 28 32 15 17 1024.3 1024.3 0.0
13/09:00pm 18.8 15.5 14.1 74 2.7 ESE 24 28 13 15 1024.0 1024.0 0.0
13/08:30pm 19.2 18.2 13.4 69 3.3 ESE 11 13 6 7 1023.9 1023.9 0.0
13/08:00pm 19.2 18.3 13.6 70 3.2 ESE 11 13 6 7 1023.8 1023.8 0.0
13/07:30pm 19.3 17.2 13.7 70 3.2 ESE 17 19 9 10 1023.8 1023.8 0.0
13/07:00pm 19.3 16.7 13.2 68 3.4 ESE 19 20 10 11 1023.3 1023.3 0.0
13/06:30pm 19.5 16.8 13.4 68 3.5 ESE 20 26 11 14 1022.9 1022.9 0.0
13/06:00pm 19.5 17.2 13.0 66 3.7 E 17 20 9 11 1022.6 1022.6 0.0
13/05:30pm 19.9 17.2 13.4 66 3.7 E 20 24 11 13 1022.6 1022.6 0.0
13/05:00pm 20.1 17.3 13.1 64 4.0 E 20 24 11 13 1022.4 1022.4 0.0
13/04:30pm 20.4 17.7 12.9 62 4.3 E 19 22 10 12 1022.1 1022.1 0.0
13/04:00pm 20.8 18.7 12.5 59 4.7 E 15 19 8 10 1021.9 1021.9 0.0
13/03:30pm 20.8 18.6 12.0 57 4.9 E 15 17 8 9 1021.7 1021.7 0.0
13/03:00pm 21.2 18.8 11.5 54 5.4 E 15 17 8 9 1021.9 1021.9 0.0
13/02:30pm 21.0 18.7 11.6 55 5.2 E 15 17 8 9 1022.0 1022.0 0.0
13/02:00pm 21.5 19.4 11.2 52 5.7 E 13 15 7 8 1022.3 1022.3 0.0
13/01:30pm 21.5 19.3 10.9 51 5.8 E 13 15 7 8 1022.4 1022.4 0.0
13/01:00pm 22.1 20.2 10.6 48 6.3 ESE 11 13 6 7 1022.7 1022.7 0.0

Other Formats:

Comma delimited format used in spreadsheet applications
http://www.bom.gov.au/fwo/IDQ60801/IDQ60801.95591.axf

JavaScript Object Notation format (JSON) in row-major order
http://www.bom.gov.au/fwo/IDQ60801/IDQ60801.95591.json